Pass A Grille Beach, Florida
Current Conditions -  °F | °C
As of 11:53 PM on Saturday 22 Nov 2014 (Local Time) from KSPG Reporting Station
Overcast Overcast  
Wind Chill: 69°   Ceiling: 2700
Heat Index: 69°   Visibility: 7mi
Dew Point: 65°   Wind: 13mph
Humidity: 87%   Direction: 140°SE
Pressure: 30.04"   Gusts: NA
Location:  27.7355°N, 82.7065°W
Report Text: KSPG 230453Z AUTO 14011KT 7SM SCT020 BKN027 OVC036 21/18 A3004 RMK AO2 SLP172 T02060183 402170172
Loading
Personal Weather Stations






























Interactive Weather Map New forecast layout! Learn more

10-Day Weather Forecast

Advertisements
Track Severe Weather on mobile